CheckWX is a tool to help pilots better visualize weather data.  It is not intended as a substitute for an official pre-flight weather briefing.

03:17:18 UTC

KELM METAR
Elmira / Corning Regional Airport
Elmira/Corning, New York, USA
Current

24 mins ago

KELM 270253Z 00000KT 10SM FEW043 SCT055 BKN065 17/12 A2998 RMK AO2 SLP148 T01720122 51013
Observed
May-27 @ 02:53 UTC
Visibility
10 SM
Flight Rules
VFR
Cloud Levels
  • Few at 4,300' AGL
  • Scattered at 5,500' AGL
  • Broken at 6,500' AGL
Temperature
17°C / 63°F
Dewpoint
12°C / 54°F
Humidity
73%
Altimeter
29.98" Hg
Pressure
1015.22 hPa
Previous

1 hour ago

KELM 270153Z 00000KT 10SM BKN043 OVC055 19/11 A2997 RMK AO2 SLP145 T01890111
Observed
May-27 @ 01:53 UTC
Visibility
10 SM
Flight Rules
VFR
Cloud Levels
  • Broken at 4,300' AGL
  • Overcast at 5,500' AGL
Temperature
19°C / 66°F
Dewpoint
11°C / 52°F
Humidity
60%
Altimeter
29.97" Hg
Pressure
1014.92 hPa
Previous

2 hours ago

KELM 270053Z 00000KT 10SM BKN045 BKN060 19/11 A2996 RMK AO2 SLP140 T01940106
Observed
May-27 @ 00:53 UTC
Visibility
10 SM
Flight Rules
VFR
Cloud Levels
  • Broken at 4,500' AGL
  • Broken at 6,000' AGL
Temperature
19°C / 66°F
Dewpoint
11°C / 52°F
Humidity
60%
Altimeter
29.96" Hg
Pressure
1014.52 hPa